createdAt,value
2022-09-17T00:01:21.062Z,94156.16
2022-09-17T00:03:57.228Z,94140.38
2022-09-17T00:06:25.481Z,94145.91
2022-09-17T00:08:53.935Z,94151.44
2022-09-17T00:11:27.197Z,94156.22
2022-09-17T00:13:55.210Z,94155.13
2022-09-17T00:16:31.293Z,94150.09
2022-09-17T00:19:00.127Z,94160.84
2022-09-17T00:21:27.874Z,94148.50
2022-09-17T00:24:00.208Z,94144.03
2022-09-17T00:26:28.562Z,94144.28
2022-09-17T00:28:57.316Z,94136.19
2022-09-17T00:31:24.778Z,94152.94
2022-09-17T00:33:53.477Z,94139.31
2022-09-17T00:36:21.654Z,94143.56
2022-09-17T00:38:52.763Z,94134.63
2022-09-17T00:41:20.975Z,94141.75
2022-09-17T00:44:29.239Z,94134.09
2022-09-17T00:46:56.049Z,94135.72
2022-09-17T00:49:29.323Z,94132.59
2022-09-17T00:52:06.613Z,94140.50
2022-09-17T00:54:34.315Z,94153.56
2022-09-17T00:57:01.111Z,94135.19
2022-09-17T00:59:28.832Z,94127.59
2022-09-17T01:01:55.932Z,94146.22
2022-09-17T01:04:26.099Z,94152.03
2022-09-17T01:07:17.273Z,94157.19
2022-09-17T01:09:50.199Z,94152.47
2022-09-17T01:12:40.332Z,94147.72
2022-09-17T01:15:07.231Z,94136.19
2022-09-17T01:18:04.353Z,94132.53
2022-09-17T01:21:08.578Z,94120.47
2022-09-17T01:23:44.691Z,94130.94
2022-09-17T01:26:32.566Z,94129.44
2022-09-17T01:29:08.444Z,94123.59
2022-09-17T01:31:41.409Z,94123.59
2022-09-17T01:34:25.400Z,94114.69
2022-09-17T01:36:55.133Z,94123.91
2022-09-17T01:39:34.497Z,94126.00
2022-09-17T01:42:11.044Z,94112.63
2022-09-17T01:44:53.580Z,94109.00
2022-09-17T01:47:26.190Z,94122.16
2022-09-17T01:50:00.054Z,94118.81
2022-09-17T01:52:29.055Z,94121.16
2022-09-17T01:55:00.934Z,94125.94
2022-09-17T01:57:41.446Z,94108.63
2022-09-17T02:00:12.143Z,94105.47
2022-09-17T02:02:48.367Z,94076.66
2022-09-17T02:05:23.796Z,94100.19
2022-09-17T02:08:19.526Z,94112.78
2022-09-17T02:10:54.003Z,94107.09
2022-09-17T02:13:34.957Z,94100.88
2022-09-17T02:16:25.223Z,94079.44
2022-09-17T02:19:06.935Z,94061.84
2022-09-17T02:21:48.149Z,94058.09
2022-09-17T02:24:27.526Z,94048.38
2022-09-17T02:27:15.864Z,94051.44
2022-09-17T02:29:44.503Z,94025.72
2022-09-17T02:32:13.483Z,94002.53
2022-09-17T02:34:40.709Z,93991.59
2022-09-17T02:37:08.055Z,94021.16
2022-09-17T02:39:35.529Z,94006.69
2022-09-17T02:42:12.339Z,93997.19
2022-09-17T02:44:57.648Z,93981.59
2022-09-17T02:47:27.287Z,93968.69
2022-09-17T02:50:00.407Z,93971.22
2022-09-17T02:52:49.787Z,93981.13
2022-09-17T02:55:32.054Z,93989.97
2022-09-17T02:58:17.724Z,93982.00
2022-09-17T03:00:46.460Z,93965.69
2022-09-17T03:03:22.150Z,93972.38
2022-09-17T03:05:50.045Z,93976.56
2022-09-17T03:08:20.280Z,93974.72
2022-09-17T03:10:49.246Z,93958.31
2022-09-17T03:13:16.437Z,93961.66
2022-09-17T03:15:43.283Z,93966.06
2022-09-17T03:18:10.075Z,93969.47
2022-09-17T03:20:36.829Z,93961.09
2022-09-17T03:23:03.667Z,93985.94
2022-09-17T03:25:30.543Z,93974.44
2022-09-17T03:27:57.282Z,93963.00
2022-09-17T03:30:24.053Z,93970.78
2022-09-17T03:32:50.824Z,93951.94
2022-09-17T03:35:17.604Z,93960.56
2022-09-17T03:37:44.472Z,93980.34
2022-09-17T03:40:11.362Z,93946.19
2022-09-17T03:42:38.197Z,93967.00
2022-09-17T03:45:05.890Z,93971.19
2022-09-17T03:47:32.624Z,93975.59
2022-09-17T03:49:59.420Z,93992.63
2022-09-17T03:52:26.103Z,93957.69
2022-09-17T03:54:52.930Z,93948.88
2022-09-17T03:57:19.700Z,93969.28
2022-09-17T03:59:46.671Z,93949.09
2022-09-17T04:02:13.480Z,93931.16
2022-09-17T04:04:40.800Z,93934.50
2022-09-17T04:07:07.719Z,93934.59
2022-09-17T04:09:35.416Z,93953.13
2022-09-17T04:12:03.001Z,93944.25
2022-09-17T04:14:29.904Z,93956.69
2022-09-17T04:16:58.644Z,93968.16
2022-09-17T04:19:25.422Z,93984.44
2022-09-17T04:21:53.470Z,93990.41
2022-09-17T04:24:20.282Z,93996.91
2022-09-17T04:26:47.227Z,94014.16
2022-09-17T04:29:14.056Z,94018.28
2022-09-17T04:31:40.833Z,94032.91
2022-09-17T04:34:07.671Z,94043.97
2022-09-17T04:36:34.525Z,94052.13
2022-09-17T04:39:01.446Z,94056.00
2022-09-17T04:41:28.276Z,94067.75
2022-09-17T04:43:55.037Z,94073.50
2022-09-17T04:46:21.767Z,94083.59
2022-09-17T04:48:48.531Z,94097.59
2022-09-17T04:51:15.664Z,94091.78
2022-09-17T04:53:42.398Z,94088.38
2022-09-17T04:56:09.186Z,94105.44
2022-09-17T04:58:36.104Z,94105.31
2022-09-17T05:01:02.969Z,94109.75
2022-09-17T05:03:29.748Z,94127.19
2022-09-17T05:05:56.549Z,94139.44
2022-09-17T05:08:23.988Z,94133.84
2022-09-17T05:10:51.947Z,94138.47
2022-09-17T05:13:19.217Z,94146.78
2022-09-17T05:15:46.137Z,94155.09
2022-09-17T05:18:13.390Z,94159.25
2022-09-17T05:20:40.322Z,94156.91
2022-09-17T05:23:07.105Z,94145.00
2022-09-17T05:25:33.841Z,94140.50
2022-09-17T05:28:01.454Z,94120.50
2022-09-17T05:30:28.337Z,94102.56
2022-09-17T05:33:05.964Z,94095.63
2022-09-17T05:35:33.579Z,94102.25
2022-09-17T05:38:07.690Z,94098.19
2022-09-17T05:40:34.481Z,94104.06
2022-09-17T05:43:05.381Z,94114.97
2022-09-17T05:45:36.472Z,94118.50
2022-09-17T05:48:06.423Z,94117.84
2022-09-17T05:50:33.906Z,94120.31
2022-09-17T05:53:10.799Z,94096.69
2022-09-17T05:55:41.065Z,94089.69
2022-09-17T05:58:16.441Z,94116.59
2022-09-17T06:00:43.698Z,94133.38
2022-09-17T06:03:11.958Z,94101.00
2022-09-17T06:05:38.828Z,94120.63
2022-09-17T06:08:05.818Z,94110.56
2022-09-17T06:10:32.950Z,94103.75
2022-09-17T06:13:00.062Z,94115.84
2022-09-17T06:15:28.178Z,94116.22
2022-09-17T06:17:54.991Z,94124.31
2022-09-17T06:20:22.334Z,94112.81
2022-09-17T06:22:49.040Z,94132.41
2022-09-17T06:25:15.869Z,94144.13
2022-09-17T06:27:42.536Z,94148.59
2022-09-17T06:30:09.874Z,94145.97
2022-09-17T06:32:36.605Z,94148.59
2022-09-17T06:35:03.439Z,94161.66
2022-09-17T06:37:31.571Z,94177.84
2022-09-17T06:39:59.418Z,94183.88
2022-09-17T06:42:26.870Z,94182.50
2022-09-17T06:44:53.601Z,94188.16
2022-09-17T06:47:21.112Z,94187.47
2022-09-17T06:49:48.029Z,94164.25
2022-09-17T06:52:14.767Z,94160.63
2022-09-17T06:54:41.577Z,94154.78
2022-09-17T06:57:08.351Z,94154.13
2022-09-17T06:59:35.243Z,94131.56
2022-09-17T07:02:02.066Z,94148.25
2022-09-17T07:04:28.866Z,94160.84
2022-09-17T07:06:55.664Z,94140.34
2022-09-17T07:09:22.398Z,94144.47
2022-09-17T07:11:49.134Z,94146.81
2022-09-17T07:14:15.869Z,94143.78
2022-09-17T07:16:42.588Z,94131.63
2022-09-17T07:19:09.431Z,94125.00
2022-09-17T07:21:37.717Z,94111.06
2022-09-17T07:24:04.766Z,94106.94
2022-09-17T07:26:31.477Z,94110.09
2022-09-17T07:28:58.230Z,94094.78
2022-09-17T07:31:25.105Z,94101.53
2022-09-17T07:33:51.869Z,94098.63
2022-09-17T07:36:18.913Z,94107.91
2022-09-17T07:38:46.202Z,94094.78
2022-09-17T07:41:15.259Z,94093.00
2022-09-17T07:43:43.253Z,94088.66
2022-09-17T07:46:18.545Z,94101.72
2022-09-17T07:48:46.674Z,94083.69
2022-09-17T07:51:22.122Z,94080.28
2022-09-17T07:53:59.012Z,94082.78
2022-09-17T07:56:27.456Z,94081.41
2022-09-17T07:58:55.341Z,94075.78
2022-09-17T08:01:22.982Z,94077.78
2022-09-17T08:03:54.828Z,94082.41
2022-09-17T08:06:28.117Z,94069.56
2022-09-17T08:08:56.728Z,94069.16
2022-09-17T08:11:51.970Z,94081.59
2022-09-17T08:14:15.795Z,94073.84
2022-09-17T08:16:43.352Z,94074.56
2022-09-17T08:19:11.457Z,94060.84
2022-09-17T08:21:38.848Z,94048.56
2022-09-17T08:24:05.805Z,94044.31
2022-09-17T08:26:32.713Z,94046.66
2022-09-17T08:28:59.896Z,94050.25
2022-09-17T08:31:28.453Z,94052.47
2022-09-17T08:33:55.550Z,94012.47
2022-09-17T08:36:26.520Z,94043.53
2022-09-17T08:38:57.999Z,94045.53
2022-09-17T08:41:40.158Z,94050.69
2022-09-17T08:44:41.958Z,94050.69
2022-09-17T08:47:31.217Z,94052.06
2022-09-17T08:50:04.348Z,94044.97
2022-09-17T08:52:34.324Z,94040.06
2022-09-17T08:55:07.657Z,94042.50
2022-09-17T08:57:50.507Z,94046.53
2022-09-17T09:00:20.486Z,94035.69
2022-09-17T09:02:56.319Z,94045.66
2022-09-17T09:05:30.360Z,94053.31
2022-09-17T09:08:00.848Z,94051.94
2022-09-17T09:10:33.451Z,94040.41
2022-09-17T09:13:01.443Z,94047.81
2022-09-17T09:15:33.405Z,94064.47
2022-09-17T09:18:12.178Z,94069.72
2022-09-17T09:21:08.914Z,94068.38
2022-09-17T09:23:52.744Z,94074.88
2022-09-17T09:26:58.376Z,94082.41
2022-09-17T09:29:56.854Z,94085.13
2022-09-17T09:32:48.517Z,94092.31
2022-09-17T09:35:24.715Z,94112.97
2022-09-17T09:38:09.541Z,94116.06
2022-09-17T09:40:44.649Z,94130.97
2022-09-17T09:43:22.542Z,94129.56
2022-09-17T09:46:33.233Z,94148.69
2022-09-17T09:49:41.471Z,94146.75
2022-09-17T09:52:26.325Z,94152.38
2022-09-17T09:55:06.429Z,94144.56
2022-09-17T09:58:14.101Z,94154.25
2022-09-17T10:00:44.786Z,94154.53
2022-09-17T10:03:23.711Z,94167.44
2022-09-17T10:06:02.920Z,94172.56
2022-09-17T10:08:33.098Z,94173.75
2022-09-17T10:11:03.285Z,94176.88
2022-09-17T10:13:33.236Z,94149.53
2022-09-17T10:16:20.633Z,94134.78
2022-09-17T10:18:49.558Z,94110.53
2022-09-17T10:21:34.383Z,94079.13
2022-09-17T10:24:05.280Z,94087.50
2022-09-17T10:26:35.511Z,94076.94
2022-09-17T10:29:21.078Z,94065.56
2022-09-17T10:31:51.721Z,94052.78
2022-09-17T10:34:26.726Z,94026.03
2022-09-17T10:36:56.238Z,94043.56
2022-09-17T10:39:43.671Z,94033.16
2022-09-17T10:42:15.911Z,94029.72
2022-09-17T10:45:01.070Z,94041.66
2022-09-17T10:47:37.653Z,94048.19
2022-09-17T10:50:18.145Z,94050.22
2022-09-17T10:52:51.144Z,94044.31
2022-09-17T10:55:30.877Z,93980.72
2022-09-17T10:58:07.455Z,94007.97
2022-09-17T11:00:40.890Z,94003.97
2022-09-17T11:03:45.088Z,93999.63
2022-09-17T11:06:45.307Z,93987.66
2022-09-17T11:09:24.001Z,93987.81
2022-09-17T11:12:16.829Z,93995.00
2022-09-17T11:15:17.477Z,94001.41
2022-09-17T11:18:14.774Z,94006.41
2022-09-17T11:21:14.597Z,93997.84
2022-09-17T11:24:02.754Z,93988.84
2022-09-17T11:26:57.513Z,93986.78
2022-09-17T11:29:49.478Z,93993.94
2022-09-17T11:32:49.894Z,93998.72
2022-09-17T11:35:22.970Z,93982.25
2022-09-17T11:38:00.117Z,93994.63
2022-09-17T11:40:43.561Z,93977.91
2022-09-17T11:43:33.990Z,93983.72
2022-09-17T11:46:04.874Z,93991.31
2022-09-17T11:48:49.251Z,94000.44
2022-09-17T11:51:21.648Z,93991.38
2022-09-17T11:53:55.196Z,93996.75
2022-09-17T11:56:28.337Z,93999.41
2022-09-17T11:59:02.883Z,93999.03
2022-09-17T12:01:42.940Z,93974.28
2022-09-17T12:04:18.779Z,93972.03
2022-09-17T12:06:57.121Z,93971.06
2022-09-17T12:09:30.037Z,93977.63
2022-09-17T12:12:07.640Z,93984.94
2022-09-17T12:14:56.210Z,93991.00
2022-09-17T12:17:42.465Z,93976.09
2022-09-17T12:20:25.144Z,93963.75
2022-09-17T12:22:53.938Z,93961.88
2022-09-17T12:25:22.583Z,93980.63
2022-09-17T12:27:52.783Z,93974.44
2022-09-17T12:30:30.441Z,93960.03
2022-09-17T12:33:18.614Z,93985.16
2022-09-17T12:36:04.102Z,93975.91
2022-09-17T12:39:03.067Z,93977.22
2022-09-17T12:41:56.437Z,93973.34
2022-09-17T12:44:43.586Z,93968.38
2022-09-17T12:47:22.574Z,93973.69
2022-09-17T12:50:13.780Z,93956.41
2022-09-17T12:53:09.623Z,93938.88
2022-09-17T12:55:39.140Z,93956.78
2022-09-17T12:58:39.842Z,93960.97
2022-09-17T13:01:31.764Z,93962.97
2022-09-17T13:04:12.922Z,93966.72
2022-09-17T13:06:58.456Z,93959.25
2022-09-17T13:10:03.090Z,93939.50
2022-09-17T13:13:02.168Z,93962.38
2022-09-17T13:16:00.931Z,93924.91
2022-09-17T13:18:41.722Z,93941.28
2022-09-17T13:21:43.544Z,93952.16
2022-09-17T13:24:17.861Z,93940.16
2022-09-17T13:26:48.132Z,93922.94
2022-09-17T13:29:49.039Z,93927.91
2022-09-17T13:32:34.528Z,93937.22
2022-09-17T13:35:10.583Z,93918.84
2022-09-17T13:37:52.703Z,93903.31
2022-09-17T13:40:24.393Z,93888.06
2022-09-17T13:43:06.606Z,93900.63
2022-09-17T13:45:34.788Z,93896.88
2022-09-17T13:48:01.493Z,93903.81
2022-09-17T13:50:28.381Z,93883.81
2022-09-17T13:52:58.197Z,93890.81
2022-09-17T13:55:43.804Z,93865.50
2022-09-17T13:58:12.726Z,93863.13
2022-09-17T14:00:48.880Z,93845.13
2022-09-17T14:03:31.235Z,93828.38
2022-09-17T14:06:22.142Z,93833.03
2022-09-17T14:08:54.671Z,93813.94
2022-09-17T14:11:24.489Z,93823.69
2022-09-17T14:14:04.469Z,93827.44
2022-09-17T14:16:37.435Z,93842.28
2022-09-17T14:19:16.406Z,93837.03
2022-09-17T14:22:00.808Z,93845.59
2022-09-17T14:24:47.125Z,93830.06
2022-09-17T14:27:42.623Z,93847.06
2022-09-17T14:30:22.803Z,93844.09
2022-09-17T14:33:19.323Z,93842.84
2022-09-17T14:35:49.461Z,93850.88
2022-09-17T14:38:44.527Z,93848.88
2022-09-17T14:41:11.460Z,93841.28
2022-09-17T14:43:58.525Z,93833.72
2022-09-17T14:46:30.239Z,93820.63
2022-09-17T14:49:24.571Z,93837.09
2022-09-17T14:51:53.232Z,93805.41
2022-09-17T14:54:19.892Z,93751.00
2022-09-17T14:56:54.309Z,93726.44
2022-09-17T14:59:43.459Z,93798.44
2022-09-17T15:02:26.967Z,93777.66
2022-09-17T15:04:53.792Z,93768.69
2022-09-17T15:07:21.787Z,93770.72
2022-09-17T15:09:50.300Z,93740.53
2022-09-17T15:12:18.963Z,93750.81
2022-09-17T15:14:47.462Z,93757.34
2022-09-17T15:17:19.410Z,93774.25
2022-09-17T15:19:51.476Z,93768.97
2022-09-17T15:22:24.220Z,93756.53
2022-09-17T15:25:10.483Z,93757.13
2022-09-17T15:27:45.753Z,93736.69
2022-09-17T15:30:20.993Z,93738.09
2022-09-17T15:32:57.761Z,93731.09
2022-09-17T15:35:30.554Z,93734.22
2022-09-17T15:38:21.733Z,93735.16
2022-09-17T15:40:50.236Z,93733.44
2022-09-17T15:43:30.351Z,93738.13
2022-09-17T15:46:00.766Z,93743.53
2022-09-17T15:48:27.482Z,93733.94
2022-09-17T15:50:59.465Z,93714.66
2022-09-17T15:53:31.061Z,93743.88
2022-09-17T15:56:05.345Z,93749.63
2022-09-17T15:58:45.492Z,93732.38
2022-09-17T16:01:18.750Z,93730.22
2022-09-17T16:03:45.757Z,93731.91
2022-09-17T16:06:19.122Z,93719.69
2022-09-17T16:08:55.054Z,93706.00
2022-09-17T16:11:26.978Z,93706.97
2022-09-17T16:13:56.277Z,93697.78
2022-09-17T16:16:32.834Z,93688.31
2022-09-17T16:18:59.754Z,93680.13
2022-09-17T16:21:26.623Z,93682.28
2022-09-17T16:23:54.143Z,93677.31
2022-09-17T16:26:25.872Z,93685.66
2022-09-17T16:28:57.042Z,93685.19
2022-09-17T16:31:25.103Z,93680.19
2022-09-17T16:33:51.942Z,93671.81
2022-09-17T16:36:19.238Z,93665.63
2022-09-17T16:38:46.062Z,93665.63
2022-09-17T16:41:13.310Z,93664.97
2022-09-17T16:43:41.428Z,93658.78
2022-09-17T16:46:10.871Z,93650.72
2022-09-17T16:48:38.187Z,93641.72
2022-09-17T16:51:11.943Z,93646.63
2022-09-17T16:53:39.032Z,93640.41
2022-09-17T16:56:17.002Z,93624.59
2022-09-17T16:58:46.831Z,93628.78
2022-09-17T17:01:16.247Z,93622.72
2022-09-17T17:03:45.343Z,93628.59
2022-09-17T17:06:19.786Z,93625.97
2022-09-17T17:08:46.788Z,93626.72
2022-09-17T17:11:13.666Z,93638.94
2022-09-17T17:13:43.137Z,93645.84
2022-09-17T17:16:12.670Z,93659.53
2022-09-17T17:18:42.404Z,93669.88
2022-09-17T17:21:11.491Z,93679.59
2022-09-17T17:23:38.517Z,93697.56
2022-09-17T17:26:06.067Z,93698.16
2022-09-17T17:28:35.195Z,93686.44
2022-09-17T17:31:03.356Z,93682.50
2022-09-17T17:33:30.247Z,93686.69
2022-09-17T17:36:06.683Z,93683.47
2022-09-17T17:38:34.944Z,93698.78
2022-09-17T17:41:07.165Z,93703.69
2022-09-17T17:43:34.142Z,93680.72
2022-09-17T17:46:01.874Z,93693.75
2022-09-17T17:48:31.845Z,93726.91
2022-09-17T17:51:06.950Z,93737.44
2022-09-17T17:53:34.143Z,93736.81
2022-09-17T17:56:06.535Z,93743.50
2022-09-17T17:58:34.389Z,93746.03
2022-09-17T18:01:10.013Z,93752.84
2022-09-17T18:03:36.784Z,93761.03
2022-09-17T18:06:07.211Z,93763.38
2022-09-17T18:08:37.882Z,93741.59
2022-09-17T18:11:09.926Z,93741.66
2022-09-17T18:13:38.532Z,93712.28
2022-09-17T18:16:09.183Z,93695.91
2022-09-17T18:18:45.147Z,93687.72
2022-09-17T18:21:21.091Z,93693.75
2022-09-17T18:23:49.121Z,93721.13
2022-09-17T18:26:23.412Z,93720.47
2022-09-17T18:28:51.674Z,93724.84
2022-09-17T18:31:18.363Z,93729.66
2022-09-17T18:33:45.161Z,93710.59
2022-09-17T18:36:12.081Z,93707.97
2022-09-17T18:38:41.969Z,93706.44
2022-09-17T18:41:12.247Z,93723.19
2022-09-17T18:43:39.511Z,93733.69
2022-09-17T18:46:06.437Z,93722.22
2022-09-17T18:48:36.557Z,93715.69
2022-09-17T18:51:05.196Z,93716.59
2022-09-17T18:53:36.195Z,93728.81
2022-09-17T18:56:07.201Z,93715.94
2022-09-17T18:58:34.312Z,93706.31
2022-09-17T19:01:05.481Z,93714.69
2022-09-17T19:03:33.295Z,93718.41
2022-09-17T19:06:01.494Z,93711.88
2022-09-17T19:08:28.531Z,93721.72
2022-09-17T19:10:55.308Z,93721.72
2022-09-17T19:13:22.324Z,93709.69
2022-09-17T19:15:49.003Z,93715.72
2022-09-17T19:18:15.801Z,93690.66
2022-09-17T19:20:42.689Z,93715.53
2022-09-17T19:23:09.494Z,93698.97
2022-09-17T19:25:37.071Z,93706.78
2022-09-17T19:28:04.656Z,93709.53
2022-09-17T19:30:31.795Z,93702.31
2022-09-17T19:32:58.959Z,93714.41
2022-09-17T19:35:26.403Z,93714.03
2022-09-17T19:37:57.012Z,93712.88
2022-09-17T19:40:24.705Z,93719.97
2022-09-17T19:42:54.211Z,93710.06
2022-09-17T19:45:25.757Z,93719.13
2022-09-17T19:47:56.417Z,93702.97
2022-09-17T19:50:25.318Z,93717.94
2022-09-17T19:52:52.124Z,93720.09
2022-09-17T19:55:19.005Z,93698.88
2022-09-17T19:57:45.813Z,93707.25
2022-09-17T20:00:13.311Z,93706.44
2022-09-17T20:02:40.530Z,93703.34
2022-09-17T20:05:07.711Z,93707.66
2022-09-17T20:07:35.426Z,93700.81
2022-09-17T20:10:05.254Z,93690.91
2022-09-17T20:12:34.716Z,93688.78
2022-09-17T20:15:01.802Z,93688.88
2022-09-17T20:17:29.357Z,93684.69
2022-09-17T20:19:56.209Z,93670.00
2022-09-17T20:22:23.074Z,93671.78
2022-09-17T20:24:51.165Z,93667.00
2022-09-17T20:27:18.147Z,93666.63
2022-09-17T20:29:44.900Z,93650.47
2022-09-17T20:32:11.728Z,93654.53
2022-09-17T20:34:38.912Z,93633.47
2022-09-17T20:37:13.006Z,93638.13
2022-09-17T20:39:40.754Z,93659.41
2022-09-17T20:42:07.667Z,93659.41
2022-09-17T20:44:34.377Z,93650.47
2022-09-17T20:47:03.763Z,93664.66
2022-09-17T20:49:30.633Z,93677.69
2022-09-17T20:51:57.674Z,93673.03
2022-09-17T20:54:24.416Z,93691.31
2022-09-17T20:56:52.297Z,93689.78
2022-09-17T20:59:19.443Z,93682.97
2022-09-17T21:01:49.694Z,93678.28
2022-09-17T21:04:19.579Z,93669.34
2022-09-17T21:06:48.718Z,93662.75
2022-09-17T21:09:18.349Z,93655.34
2022-09-17T21:11:47.588Z,93650.56
2022-09-17T21:14:16.864Z,93653.88
2022-09-17T21:16:45.026Z,93634.91
2022-09-17T21:19:14.880Z,93647.84
2022-09-17T21:21:42.090Z,93648.31
2022-09-17T21:24:11.719Z,93652.63
2022-09-17T21:26:38.722Z,93648.31
2022-09-17T21:29:05.538Z,93639.00
2022-09-17T21:31:34.078Z,93642.88
2022-09-17T21:34:02.863Z,93648.91
2022-09-17T21:36:32.606Z,93635.28
2022-09-17T21:39:05.874Z,93640.56
2022-09-17T21:41:32.896Z,93631.13
2022-09-17T21:44:00.355Z,93637.91
2022-09-17T21:46:33.952Z,93642.69
2022-09-17T21:49:04.903Z,93645.03
2022-09-17T21:51:43.767Z,93653.19
2022-09-17T21:54:13.280Z,93661.75
2022-09-17T21:56:40.285Z,93661.38
2022-09-17T21:59:09.773Z,93647.66
2022-09-17T22:01:40.567Z,93648.50
2022-09-17T22:04:13.134Z,93645.56
2022-09-17T22:06:42.765Z,93627.47
2022-09-17T22:09:15.585Z,93634.53
2022-09-17T22:11:45.374Z,93613.16
2022-09-17T22:14:15.230Z,93639.00
2022-09-17T22:16:44.313Z,93640.88
2022-09-17T22:19:12.855Z,93632.69
2022-09-17T22:21:46.744Z,93616.34
2022-09-17T22:24:17.705Z,93652.72
2022-09-17T22:26:56.526Z,93655.22
2022-09-17T22:29:24.749Z,93656.78
2022-09-17T22:31:51.734Z,93650.56
2022-09-17T22:34:23.197Z,93666.31
2022-09-17T22:36:50.633Z,93662.56
2022-09-17T22:39:20.257Z,93640.63
2022-09-17T22:41:48.497Z,93656.19
2022-09-17T22:44:17.957Z,93671.97
2022-09-17T22:46:46.915Z,93674.69
2022-09-17T22:49:14.525Z,93662.09
2022-09-17T22:51:42.376Z,93673.47
2022-09-17T22:54:14.211Z,93671.13
2022-09-17T22:56:42.181Z,93657.44
2022-09-17T22:59:09.242Z,93649.09
2022-09-17T23:01:42.015Z,93655.28
2022-09-17T23:04:09.733Z,93650.66
2022-09-17T23:06:39.620Z,93662.31
2022-09-17T23:09:07.180Z,93665.44
2022-09-17T23:11:39.701Z,93674.97
2022-09-17T23:14:11.846Z,93670.50
2022-09-17T23:16:41.762Z,93654.78
2022-09-17T23:19:10.112Z,93640.28
2022-09-17T23:21:40.836Z,93684.16
2022-09-17T23:24:08.911Z,93680.44
2022-09-17T23:26:36.114Z,93668.97
2022-09-17T23:29:05.240Z,93669.72
2022-09-17T23:31:35.215Z,93675.09
2022-09-17T23:34:03.507Z,93679.09
2022-09-17T23:36:32.478Z,93671.50
2022-09-17T23:39:00.415Z,93674.41
2022-09-17T23:41:30.251Z,93695.91
2022-09-17T23:44:00.234Z,93696.19
2022-09-17T23:46:29.917Z,93696.19
2022-09-17T23:48:57.202Z,93699.31
2022-09-17T23:51:27.171Z,93693.09
2022-09-17T23:53:54.821Z,93672.06
2022-09-17T23:56:26.258Z,93700.47
2022-09-17T23:58:55.047Z,93716.44
